createdAt,value
2023-03-02T00:00:15.351Z,1.88
2023-03-02T00:05:16.969Z,1.89
2023-03-02T00:10:18.513Z,1.92
2023-03-02T00:15:20.028Z,1.91
2023-03-02T00:20:21.571Z,1.93
2023-03-02T00:25:23.316Z,2.11
2023-03-02T00:30:24.836Z,2.12
2023-03-02T00:35:27.096Z,2.15
2023-03-02T00:40:28.624Z,1.96
2023-03-02T00:45:30.411Z,1.98
2023-03-02T00:50:32.022Z,2.12
2023-03-02T00:55:33.620Z,2.19
2023-03-02T01:00:37.106Z,2.15
2023-03-02T01:05:38.802Z,1.82
2023-03-02T01:10:40.540Z,1.78
2023-03-02T01:15:42.063Z,1.82
2023-03-02T01:20:43.600Z,1.85
2023-03-02T01:25:45.161Z,1.94
2023-03-02T01:30:47.771Z,1.83
2023-03-02T01:35:49.577Z,1.50
2023-03-02T01:40:51.122Z,1.54
2023-03-02T01:45:57.409Z,1.66
2023-03-02T01:51:02.053Z,1.76
2023-03-02T01:56:04.820Z,1.79
2023-03-02T02:01:15.252Z,1.77
2023-03-02T02:06:25.006Z,1.83
2023-03-02T02:11:26.756Z,1.89
2023-03-02T02:16:31.678Z,1.77
2023-03-02T02:21:34.278Z,1.70
2023-03-02T02:26:41.854Z,1.71
2023-03-02T02:31:48.298Z,1.65
2023-03-02T02:36:56.076Z,1.64
2023-03-02T02:42:02.853Z,1.60
2023-03-02T02:47:15.011Z,1.58
2023-03-02T02:52:19.723Z,1.61
2023-03-02T02:57:25.422Z,1.58
2023-03-02T03:02:30.858Z,1.62
2023-03-02T03:07:32.769Z,1.62
2023-03-02T03:12:35.284Z,1.71
2023-03-02T03:17:36.832Z,1.81
2023-03-02T03:22:38.767Z,1.81
2023-03-02T03:27:42.719Z,1.91
2023-03-02T03:32:44.548Z,1.86
2023-03-02T03:37:48.539Z,1.69
2023-03-02T03:42:50.101Z,1.63
2023-03-02T03:47:51.605Z,1.33
2023-03-02T03:52:53.122Z,1.31
2023-03-02T03:57:55.363Z,1.35
2023-03-02T04:02:56.976Z,1.56
2023-03-02T04:08:02.090Z,1.69
2023-03-02T04:13:04.348Z,1.62
2023-03-02T04:18:05.959Z,1.56
2023-03-02T04:23:07.507Z,1.43
2023-03-02T04:28:09.063Z,1.48
2023-03-02T04:33:11.132Z,1.52
2023-03-02T04:38:14.012Z,1.55
2023-03-02T04:43:15.535Z,1.57
2023-03-02T04:48:17.263Z,1.52
2023-03-02T04:53:18.820Z,1.54
2023-03-02T04:58:20.502Z,1.53
2023-03-02T05:03:22.048Z,1.47
2023-03-02T05:08:24.355Z,1.49
2023-03-02T05:13:26.642Z,1.54
2023-03-02T05:18:28.195Z,1.47
2023-03-02T05:23:31.554Z,1.46
2023-03-02T05:28:33.405Z,1.22
2023-03-02T05:33:35.052Z,1.35
2023-03-02T05:38:36.758Z,1.30
2023-03-02T05:43:39.520Z,1.30
2023-03-02T05:48:42.176Z,1.27
2023-03-02T05:53:43.784Z,1.07
2023-03-02T05:58:45.308Z,1.04
2023-03-02T06:03:46.820Z,1.12
2023-03-02T06:08:48.332Z,1.15
2023-03-02T06:13:49.882Z,1.16
2023-03-02T06:18:51.440Z,1.17
2023-03-02T06:23:52.974Z,1.21
2023-03-02T06:28:54.469Z,1.08
2023-03-02T06:33:56.046Z,1.03
2023-03-02T06:38:57.596Z,0.86
2023-03-02T06:44:00.739Z,0.83
2023-03-02T06:49:02.520Z,0.84
2023-03-02T06:54:06.922Z,0.84
2023-03-02T06:59:08.784Z,0.75
2023-03-02T07:04:10.305Z,0.93
2023-03-02T07:09:11.837Z,1.14
2023-03-02T07:14:13.339Z,0.95
2023-03-02T07:19:14.964Z,0.87
2023-03-02T07:24:16.717Z,0.94
2023-03-02T07:29:18.252Z,1.00
2023-03-02T07:34:19.742Z,0.95
2023-03-02T07:39:21.468Z,0.82
2023-03-02T07:44:22.964Z,0.80
2023-03-02T07:49:24.691Z,0.56
2023-03-02T07:54:27.768Z,0.52
2023-03-02T07:59:29.450Z,0.38
2023-03-02T08:04:31.791Z,0.45
2023-03-02T08:09:33.330Z,0.48
2023-03-02T08:14:34.926Z,0.34
2023-03-02T08:19:36.567Z,0.14
2023-03-02T08:24:40.274Z,-0.09
2023-03-02T08:29:42.328Z,0.23
2023-03-02T08:34:43.848Z,0.33
2023-03-02T08:39:45.369Z,0.37
2023-03-02T08:44:46.860Z,0.38
2023-03-02T08:49:49.833Z,0.21
2023-03-02T08:54:51.442Z,0.25
2023-03-02T08:59:53.064Z,0.24
2023-03-02T09:04:55.765Z,1.05
2023-03-02T09:09:57.392Z,1.54
2023-03-02T09:14:58.886Z,1.25
2023-03-02T09:20:00.452Z,1.26
2023-03-02T09:25:03.768Z,1.25
2023-03-02T09:30:05.889Z,1.29
2023-03-02T09:35:08.557Z,1.47
2023-03-02T09:40:20.514Z,1.58
2023-03-02T09:45:33.527Z,1.84
2023-03-02T09:50:39.493Z,1.86
2023-03-02T09:55:41.053Z,1.78
2023-03-02T10:00:44.966Z,1.59
2023-03-02T10:05:49.026Z,1.73
2023-03-02T10:10:58.079Z,1.95
2023-03-02T10:16:24.681Z,2.16
2023-03-02T10:21:58.120Z,1.91
2023-03-02T10:27:17.858Z,1.99
2023-03-02T10:32:24.416Z,2.12
2023-03-02T10:37:30.106Z,2.00
2023-03-02T10:42:37.727Z,1.96
2023-03-02T10:47:39.263Z,2.10
2023-03-02T10:52:59.520Z,2.08
2023-03-02T10:58:31.171Z,2.10
2023-03-02T11:03:34.562Z,2.18
2023-03-02T11:08:36.137Z,2.20
2023-03-02T11:13:39.182Z,2.18
2023-03-02T11:18:48.668Z,2.22
2023-03-02T11:24:06.130Z,2.23
2023-03-02T11:29:22.961Z,2.22
2023-03-02T11:34:36.369Z,2.47
2023-03-02T11:39:56.306Z,2.62
2023-03-02T11:45:02.566Z,2.66
2023-03-02T11:50:06.878Z,2.77
2023-03-02T11:55:22.607Z,2.92
2023-03-02T12:00:42.388Z,3.01
2023-03-02T12:05:47.064Z,2.79
2023-03-02T12:10:59.638Z,2.69
2023-03-02T12:16:01.862Z,2.78
2023-03-02T12:21:11.437Z,2.87
2023-03-02T12:26:22.014Z,3.03
2023-03-02T12:31:24.248Z,3.38
2023-03-02T12:36:32.277Z,3.58
2023-03-02T12:42:08.374Z,3.51
2023-03-02T12:47:16.698Z,3.66
2023-03-02T12:52:23.882Z,3.74
2023-03-02T12:57:25.748Z,3.81
2023-03-02T13:02:30.142Z,3.85
2023-03-02T13:07:44.302Z,3.91
2023-03-02T13:12:46.378Z,3.95
2023-03-02T13:17:59.648Z,3.98
2023-03-02T13:23:01.602Z,4.07
2023-03-02T13:28:08.088Z,4.20
2023-03-02T13:33:22.433Z,4.34
2023-03-02T13:38:32.732Z,4.43
2023-03-02T13:43:37.948Z,4.53
2023-03-02T13:48:39.516Z,4.63
2023-03-02T13:53:45.510Z,4.57
2023-03-02T13:58:47.499Z,4.72
2023-03-02T14:03:49.142Z,4.76
2023-03-02T14:08:50.696Z,4.90
2023-03-02T14:13:54.955Z,5.00
2023-03-02T14:18:56.550Z,4.99
2023-03-02T14:23:59.049Z,5.13
2023-03-02T14:29:07.740Z,5.15
2023-03-02T14:34:12.678Z,5.27
2023-03-02T14:39:22.254Z,5.47
2023-03-02T14:44:23.861Z,5.55
2023-03-02T14:49:25.586Z,5.62
2023-03-02T14:54:30.808Z,5.63
2023-03-02T14:59:32.380Z,5.70
2023-03-02T15:04:34.703Z,5.70
2023-03-02T15:09:36.242Z,5.72
2023-03-02T15:14:38.064Z,5.74
2023-03-02T15:19:39.593Z,5.82
2023-03-02T15:24:41.468Z,5.92
2023-03-02T15:29:47.109Z,5.98
2023-03-02T15:34:48.682Z,5.99
2023-03-02T15:39:55.363Z,5.93
2023-03-02T15:44:57.114Z,5.83
2023-03-02T15:49:58.699Z,5.74
2023-03-02T15:55:04.295Z,5.64
2023-03-02T16:00:08.378Z,5.54
2023-03-02T16:05:10.459Z,5.41
2023-03-02T16:10:15.370Z,5.39
2023-03-02T16:15:17.062Z,5.35
2023-03-02T16:20:18.798Z,5.32
2023-03-02T16:25:20.648Z,5.29
2023-03-02T16:30:23.579Z,5.22
2023-03-02T16:35:25.983Z,5.06
2023-03-02T16:40:28.085Z,5.04
2023-03-02T16:45:32.680Z,5.11
2023-03-02T16:50:34.380Z,5.18
2023-03-02T16:55:39.194Z,5.22
2023-03-02T17:00:42.617Z,5.00
2023-03-02T17:05:44.404Z,4.88
2023-03-02T17:10:46.026Z,4.77
2023-03-02T17:15:48.092Z,4.66
2023-03-02T17:20:54.402Z,4.61
2023-03-02T17:25:58.547Z,4.54
2023-03-02T17:31:01.926Z,4.47
2023-03-02T17:36:07.468Z,4.24
2023-03-02T17:41:10.968Z,4.11
2023-03-02T17:46:22.717Z,4.08
2023-03-02T17:51:26.011Z,4.01
2023-03-02T17:56:27.992Z,3.95
2023-03-02T18:01:29.969Z,3.82
2023-03-02T18:06:31.511Z,3.68
2023-03-02T18:11:33.366Z,3.56
2023-03-02T18:16:35.557Z,3.54
2023-03-02T18:21:39.716Z,3.65
2023-03-02T18:26:41.654Z,3.60
2023-03-02T18:31:43.372Z,3.47
2023-03-02T18:36:45.035Z,3.43
2023-03-02T18:41:47.045Z,3.35
2023-03-02T18:46:48.556Z,3.25
2023-03-02T18:51:50.159Z,3.17
2023-03-02T18:56:51.793Z,3.11
2023-03-02T19:01:53.296Z,2.97
2023-03-02T19:07:00.660Z,2.90
2023-03-02T19:12:02.451Z,2.84
2023-03-02T19:17:04.022Z,2.80
2023-03-02T19:22:06.461Z,2.74
2023-03-02T19:27:09.713Z,2.68
2023-03-02T19:32:14.738Z,2.72
2023-03-02T19:37:16.581Z,2.72
2023-03-02T19:42:18.048Z,2.72
2023-03-02T19:47:19.562Z,2.70
2023-03-02T19:52:21.080Z,2.70
2023-03-02T19:57:24.954Z,2.69
2023-03-02T20:02:26.830Z,2.66
2023-03-02T20:07:28.519Z,2.65
2023-03-02T20:12:30.047Z,2.68
2023-03-02T20:17:31.626Z,2.67
2023-03-02T20:22:33.195Z,2.62
2023-03-02T20:27:34.735Z,2.60
2023-03-02T20:32:36.258Z,2.59
2023-03-02T20:37:38.240Z,2.53
2023-03-02T20:42:41.234Z,2.57
2023-03-02T20:47:44.208Z,2.51
2023-03-02T20:52:45.739Z,2.51
2023-03-02T20:57:48.592Z,2.50
2023-03-02T21:02:50.115Z,2.50
2023-03-02T21:07:51.766Z,2.45
2023-03-02T21:12:53.315Z,2.42
2023-03-02T21:17:56.473Z,2.38
2023-03-02T21:22:59.536Z,2.37
2023-03-02T21:28:01.647Z,2.37
2023-03-02T21:33:03.498Z,2.33
2023-03-02T21:38:05.509Z,2.30
2023-03-02T21:43:07.441Z,2.30
2023-03-02T21:48:09.070Z,2.30
2023-03-02T21:53:10.600Z,2.29
2023-03-02T21:58:12.525Z,2.24
2023-03-02T22:03:15.034Z,2.25
2023-03-02T22:08:18.512Z,2.22
2023-03-02T22:13:26.314Z,2.20
2023-03-02T22:18:27.826Z,2.22
2023-03-02T22:23:29.384Z,2.20
2023-03-02T22:28:30.848Z,2.21
2023-03-02T22:33:33.902Z,2.21
2023-03-02T22:38:35.518Z,2.26
2023-03-02T22:43:37.005Z,2.29
2023-03-02T22:48:38.649Z,2.33
2023-03-02T22:53:49.225Z,2.27
2023-03-02T22:58:51.861Z,2.24
2023-03-02T23:03:57.120Z,2.26
2023-03-02T23:09:04.226Z,2.25
2023-03-02T23:14:49.401Z,2.24
2023-03-02T23:19:51.311Z,2.26
2023-03-02T23:24:52.847Z,2.20
2023-03-02T23:29:54.443Z,2.24
2023-03-02T23:34:56.396Z,2.21
2023-03-02T23:39:57.877Z,2.20
2023-03-02T23:44:59.384Z,2.18
2023-03-02T23:50:00.915Z,2.14
2023-03-02T23:55:02.464Z,2.10
